sensor_id;sensor_type;location;lat;lon;timestamp;pressure;altitude;pressure_sealevel;temperature;humidity
42067;BME280;27734;47.028;28.820;2022-11-03T00:00:00;100862.89;;;12.81;76.66
42067;BME280;27734;47.028;28.820;2022-11-03T00:03:15;100864.73;;;12.83;76.65
42067;BME280;27734;47.028;28.820;2022-11-03T00:05:48;100862.98;;;12.84;76.82
42067;BME280;27734;47.028;28.820;2022-11-03T00:08:37;100857.77;;;12.85;77.14
42067;BME280;27734;47.028;28.820;2022-11-03T00:11:11;100856.98;;;12.88;77.02
42067;BME280;27734;47.028;28.820;2022-11-03T00:13:43;100857.87;;;12.88;76.98
42067;BME280;27734;47.028;28.820;2022-11-03T00:16:14;100865.81;;;12.90;76.62
42067;BME280;27734;47.028;28.820;2022-11-03T00:18:46;100863.23;;;12.91;76.61
42067;BME280;27734;47.028;28.820;2022-11-03T00:21:17;100860.60;;;12.91;76.98
42067;BME280;27734;47.028;28.820;2022-11-03T00:23:48;100865.08;;;12.94;76.92
42067;BME280;27734;47.028;28.820;2022-11-03T00:26:21;100858.93;;;12.93;77.37
42067;BME280;27734;47.028;28.820;2022-11-03T00:28:55;100861.56;;;12.93;77.70
42067;BME280;27734;47.028;28.820;2022-11-03T00:31:27;100865.08;;;12.94;77.44
42067;BME280;27734;47.028;28.820;2022-11-03T00:34:00;100863.33;;;12.94;77.29
42067;BME280;27734;47.028;28.820;2022-11-03T00:36:33;100860.75;;;12.96;77.23
42067;BME280;27734;47.028;28.820;2022-11-03T00:39:06;100859.86;;;12.95;77.26
42067;BME280;27734;47.028;28.820;2022-11-03T00:41:37;100866.93;;;12.97;77.73
42067;BME280;27734;47.028;28.820;2022-11-03T00:44:09;100866.06;;;12.98;77.64
42067;BME280;27734;47.028;28.820;2022-11-03T00:46:42;100865.18;;;12.97;77.76
42067;BME280;27734;47.028;28.820;2022-11-03T00:49:13;100861.71;;;12.98;77.98
42067;BME280;27734;47.028;28.820;2022-11-03T00:51:44;100863.53;;;13.01;77.60
42067;BME280;27734;47.028;28.820;2022-11-03T00:54:15;100867.03;;;13.00;76.98
42067;BME280;27734;47.028;28.820;2022-11-03T00:56:46;100869.71;;;13.01;77.33
42067;BME280;27734;47.028;28.820;2022-11-03T00:59:17;100857.47;;;13.03;77.61
42067;BME280;27734;47.028;28.820;2022-11-03T01:01:48;100858.36;;;13.04;77.90
42067;BME280;27734;47.028;28.820;2022-11-03T01:04:19;100864.54;;;13.04;77.61
42067;BME280;27734;47.028;28.820;2022-11-03T01:07:09;100855.58;;;12.99;77.46
42067;BME280;27734;47.028;28.820;2022-11-03T01:09:40;100867.22;;;13.06;77.79
42067;BME280;27734;47.028;28.820;2022-11-03T01:12:15;100867.22;;;13.06;77.81
42067;BME280;27734;47.028;28.820;2022-11-03T01:14:47;100862.79;;;13.05;77.66
42067;BME280;27734;47.028;28.820;2022-11-03T01:17:21;100868.94;;;13.05;77.57
42067;BME280;27734;47.028;28.820;2022-11-03T01:19:51;100868.89;;;13.04;77.50
42067;BME280;27734;47.028;28.820;2022-11-03T01:22:23;100868.01;;;13.03;77.91
42067;BME280;27734;47.028;28.820;2022-11-03T01:24:55;100868.89;;;13.04;77.59
42067;BME280;27734;47.028;28.820;2022-11-03T01:27:26;100869.81;;;13.04;77.67
42067;BME280;27734;47.028;28.820;2022-11-03T01:29:57;100860.16;;;13.05;77.49
42067;BME280;27734;47.028;28.820;2022-11-03T01:32:28;100865.47;;;13.06;77.64
42067;BME280;27734;47.028;28.820;2022-11-03T01:34:59;100860.20;;;13.06;77.31
42067;BME280;27734;47.028;28.820;2022-11-03T01:37:30;100861.95;;;13.06;77.49
42067;BME280;27734;47.028;28.820;2022-11-03T01:40:03;100867.22;;;13.06;78.44
42067;BME280;27734;47.028;28.820;2022-11-03T01:42:34;100868.06;;;13.05;77.71
42067;BME280;27734;47.028;28.820;2022-11-03T01:45:07;100867.13;;;13.03;78.28
42067;BME280;27734;47.028;28.820;2022-11-03T01:47:38;100868.84;;;13.02;78.45
42067;BME280;27734;47.028;28.820;2022-11-03T01:50:16;100871.48;;;13.02;78.46
42067;BME280;27734;47.028;28.820;2022-11-03T01:52:49;100882.02;;;13.02;78.30
42067;BME280;27734;47.028;28.820;2022-11-03T01:55:25;100881.13;;;13.02;77.78
42067;BME280;27734;47.028;28.820;2022-11-03T01:58:01;100887.28;;;13.02;78.11
42067;BME280;27734;47.028;28.820;2022-11-03T02:00:34;100882.93;;;13.03;78.28
42067;BME280;27734;47.028;28.820;2022-11-03T02:03:06;100887.23;;;13.01;78.09
42067;BME280;27734;47.028;28.820;2022-11-03T02:05:37;100883.67;;;12.99;78.73
42067;BME280;27734;47.028;28.820;2022-11-03T02:08:12;100889.77;;;12.98;78.69
42067;BME280;27734;47.028;28.820;2022-11-03T02:10:47;100888.89;;;12.97;79.24
42067;BME280;27734;47.028;28.820;2022-11-03T02:13:22;100890.59;;;12.95;79.46
42067;BME280;27734;47.028;28.820;2022-11-03T02:15:53;100901.08;;;12.93;78.94
42067;BME280;27734;47.028;28.820;2022-11-03T02:18:27;100895.75;;;12.92;79.18
42067;BME280;27734;47.028;28.820;2022-11-03T02:21:05;100890.48;;;12.92;78.83
42067;BME280;27734;47.028;28.820;2022-11-03T02:23:41;100894.94;;;12.94;79.27
42067;BME280;27734;47.028;28.820;2022-11-03T02:26:17;100886.10;;;12.92;78.72
42067;BME280;27734;47.028;28.820;2022-11-03T02:28:49;100890.59;;;12.95;78.86
42067;BME280;27734;47.028;28.820;2022-11-03T02:31:27;100897.58;;;12.94;79.28
42067;BME280;27734;47.028;28.820;2022-11-03T02:34:05;100900.26;;;12.96;79.47
42067;BME280;27734;47.028;28.820;2022-11-03T02:36:42;100907.28;;;12.95;79.65
42067;BME280;27734;47.028;28.820;2022-11-03T02:39:18;100909.86;;;12.94;79.38
42067;BME280;27734;47.028;28.820;2022-11-03T02:41:51;100907.13;;;12.91;79.45
42067;BME280;27734;47.028;28.820;2022-11-03T02:44:23;100906.97;;;12.86;80.47
42067;BME280;27734;47.028;28.820;2022-11-03T02:46:58;100911.25;;;12.83;80.26
42067;BME280;27734;47.028;28.820;2022-11-03T02:49:31;100917.30;;;12.80;80.28
42067;BME280;27734;47.028;28.820;2022-11-03T02:52:03;100914.56;;;12.77;80.53
42067;BME280;27734;47.028;28.820;2022-11-03T02:54:36;100910.14;;;12.76;79.96
42067;BME280;27734;47.028;28.820;2022-11-03T02:57:14;100911.05;;;12.76;80.37
42067;BME280;27734;47.028;28.820;2022-11-03T03:00:01;100910.14;;;12.76;79.97
42067;BME280;27734;47.028;28.820;2022-11-03T03:02:36;100912.81;;;12.77;80.06
42067;BME280;27734;47.028;28.820;2022-11-03T03:05:11;100917.30;;;12.80;80.60
42067;BME280;27734;47.028;28.820;2022-11-03T03:07:47;100919.05;;;12.80;80.09
42067;BME280;27734;47.028;28.820;2022-11-03T03:10:22;100923.45;;;12.81;80.70
42067;BME280;27734;47.028;28.820;2022-11-03T03:12:57;100927.84;;;12.80;80.99
42067;BME280;27734;47.028;28.820;2022-11-03T03:15:38;100925.20;;;12.80;80.61
42067;BME280;27734;47.028;28.820;2022-11-03T03:18:19;100924.32;;;12.80;80.81
42067;BME280;27734;47.028;28.820;2022-11-03T03:21:00;100920.77;;;12.79;80.18
42067;BME280;27734;47.028;28.820;2022-11-03T03:23:36;100920.77;;;12.79;80.41
42067;BME280;27734;47.028;28.820;2022-11-03T03:26:21;100911.94;;;12.77;80.81
42067;BME280;27734;47.028;28.820;2022-11-03T03:28:57;100925.05;;;12.75;81.12
42067;BME280;27734;47.028;28.820;2022-11-03T03:31:33;100918.80;;;12.72;81.49
42067;BME280;27734;47.028;28.820;2022-11-03T03:34:06;100922.16;;;12.68;81.25
42067;BME280;27734;47.028;28.820;2022-11-03T03:36:42;100915.91;;;12.64;81.15
42067;BME280;27734;47.028;28.820;2022-11-03T03:39:18;100924.58;;;12.62;81.47
42067;BME280;27734;47.028;28.820;2022-11-03T03:41:53;100922.76;;;12.59;80.95
42067;BME280;27734;47.028;28.820;2022-11-03T03:44:46;100919.05;;;12.54;81.50
42067;BME280;27734;47.028;28.820;2022-11-03T03:47:26;100918.89;;;12.49;81.54
42067;BME280;27734;47.028;28.820;2022-11-03T03:49:58;100925.85;;;12.47;81.23
42067;BME280;27734;47.028;28.820;2022-11-03T03:52:29;100923.11;;;12.44;81.10
42067;BME280;27734;47.028;28.820;2022-11-03T03:55:09;100915.88;;;12.38;81.11
42067;BME280;27734;47.028;28.820;2022-11-03T03:57:45;100922.79;;;12.35;81.52
42067;BME280;27734;47.028;28.820;2022-11-03T04:00:16;100927.83;;;12.29;81.74
42067;BME280;27734;47.028;28.820;2022-11-03T04:02:48;100926.78;;;12.23;81.77
42067;BME280;27734;47.028;28.820;2022-11-03T04:05:19;100930.96;;;12.18;81.78
42067;BME280;27734;47.028;28.820;2022-11-03T04:07:50;100930.73;;;12.12;81.60
42067;BME280;27734;47.028;28.820;2022-11-03T04:10:22;100935.92;;;12.09;81.67
42067;BME280;27734;47.028;28.820;2022-11-03T04:12:54;100946.27;;;12.04;81.55
42067;BME280;27734;47.028;28.820;2022-11-03T04:15:43;100943.42;;;11.98;82.02
42067;BME280;27734;47.028;28.820;2022-11-03T04:18:32;100943.19;;;11.92;81.86
42067;BME280;27734;47.028;28.820;2022-11-03T04:21:21;100949.06;;;11.86;82.43
42067;BME280;27734;47.028;28.820;2022-11-03T04:24:10;100943.58;;;11.80;82.23
42067;BME280;27734;47.028;28.820;2022-11-03T04:26:41;100945.14;;;11.75;82.26
42067;BME280;27734;47.028;28.820;2022-11-03T04:29:12;100942.34;;;11.71;82.47
42067;BME280;27734;47.028;28.820;2022-11-03T04:31:43;100939.53;;;11.66;81.94
42067;BME280;27734;47.028;28.820;2022-11-03T04:34:14;100943.76;;;11.62;82.76
42067;BME280;27734;47.028;28.820;2022-11-03T04:36:45;100946.24;;;11.58;82.29
42067;BME280;27734;47.028;28.820;2022-11-03T04:39:19;100943.44;;;11.53;82.60
42067;BME280;27734;47.028;28.820;2022-11-03T04:41:50;100951.20;;;11.50;82.18
42067;BME280;27734;47.028;28.820;2022-11-03T04:44:21;100949.33;;;11.47;82.32
42067;BME280;27734;47.028;28.820;2022-11-03T04:46:54;100950.16;;;11.46;82.23
42067;BME280;27734;47.028;28.820;2022-11-03T04:49:25;100961.53;;;11.45;82.00
42067;BME280;27734;47.028;28.820;2022-11-03T04:51:56;100966.78;;;11.45;82.25
42067;BME280;27734;47.028;28.820;2022-11-03T04:54:28;100978.12;;;11.44;82.06
42067;BME280;27734;47.028;28.820;2022-11-03T04:56:59;100974.67;;;11.45;81.79
42067;BME280;27734;47.028;28.820;2022-11-03T04:59:34;100983.44;;;11.46;81.78
42067;BME280;27734;47.028;28.820;2022-11-03T05:02:10;100992.20;;;11.46;81.83
42067;BME280;27734;47.028;28.820;2022-11-03T05:04:43;100985.18;;;11.45;81.80
42067;BME280;27734;47.028;28.820;2022-11-03T05:07:27;100986.95;;;11.46;81.76
42067;BME280;27734;47.028;28.820;2022-11-03T05:09:57;100987.75;;;11.44;81.84
42067;BME280;27734;47.028;28.820;2022-11-03T05:12:30;100998.20;;;11.42;81.69
42067;BME280;27734;47.028;28.820;2022-11-03T05:15:07;101004.15;;;11.38;82.01
42067;BME280;27734;47.028;28.820;2022-11-03T05:17:38;100997.89;;;11.35;82.43
42067;BME280;27734;47.028;28.820;2022-11-03T05:20:26;101000.39;;;11.31;81.82
42067;BME280;27734;47.028;28.820;2022-11-03T05:22:59;101000.33;;;11.30;82.00
42067;BME280;27734;47.028;28.820;2022-11-03T05:25:36;100997.70;;;11.30;81.93
42067;BME280;27734;47.028;28.820;2022-11-03T05:28:21;100999.47;;;11.31;81.60
42067;BME280;27734;47.028;28.820;2022-11-03T05:30:54;100996.84;;;11.31;82.28
42067;BME280;27734;47.028;28.820;2022-11-03T05:33:29;100999.34;;;11.28;82.12
42067;BME280;27734;47.028;28.820;2022-11-03T05:36:06;101001.02;;;11.26;82.23
42067;BME280;27734;47.028;28.820;2022-11-03T05:38:38;101003.52;;;11.23;81.86
42067;BME280;27734;47.028;28.820;2022-11-03T05:41:15;101013.02;;;11.19;82.22
42067;BME280;27734;47.028;28.820;2022-11-03T05:43:54;101010.27;;;11.16;82.31
42067;BME280;27734;47.028;28.820;2022-11-03T05:46:29;101016.27;;;11.13;81.94
42067;BME280;27734;47.028;28.820;2022-11-03T05:49:04;101023.08;;;11.08;82.55
42067;BME280;27734;47.028;28.820;2022-11-03T05:51:38;101024.84;;;11.09;82.45
42067;BME280;27734;47.028;28.820;2022-11-03T05:54:18;101030.23;;;11.12;82.54
42067;BME280;27734;47.028;28.820;2022-11-03T05:56:50;101014.59;;;11.15;82.49
42067;BME280;27734;47.028;28.820;2022-11-03T06:02:46;101028.23;;;11.28;82.23
42067;BME280;27734;47.028;28.820;2022-11-03T06:05:22;101027.42;;;11.29;82.09
42067;BME280;27734;47.028;28.820;2022-11-03T06:07:52;101027.42;;;11.29;82.39
42067;BME280;27734;47.028;28.820;2022-11-03T06:10:27;101021.34;;;11.30;82.37
42067;BME280;27734;47.028;28.820;2022-11-03T06:13:21;101030.17;;;11.32;82.40
42067;BME280;27734;47.028;28.820;2022-11-03T06:15:57;101030.30;;;11.35;82.74
42067;BME280;27734;47.028;28.820;2022-11-03T06:18:50;101037.36;;;11.36;82.78
42067;BME280;27734;47.028;28.820;2022-11-03T06:21:23;101039.19;;;11.39;82.68
42067;BME280;27734;47.028;28.820;2022-11-03T06:23:55;101036.75;;;11.43;82.53
42067;BME280;27734;47.028;28.820;2022-11-03T06:26:29;101036.05;;;11.47;82.60
42067;BME280;27734;47.028;28.820;2022-11-03T06:29:02;101034.50;;;11.53;82.61
42067;BME280;27734;47.028;28.820;2022-11-03T06:31:34;101040.86;;;11.58;82.49
42067;BME280;27734;47.028;28.820;2022-11-03T06:34:17;101037.50;;;11.62;82.59
42067;BME280;27734;47.028;28.820;2022-11-03T06:36:52;101044.75;;;11.67;82.77
42067;BME280;27734;47.028;28.820;2022-11-03T06:39:26;101048.38;;;11.71;82.50
42067;BME280;27734;47.028;28.820;2022-11-03T06:41:58;101049.45;;;11.76;82.52
42067;BME280;27734;47.028;28.820;2022-11-03T06:44:30;101063.70;;;11.81;82.62
42067;BME280;27734;47.028;28.820;2022-11-03T06:47:14;101061.31;;;11.87;82.65
42067;BME280;27734;47.028;28.820;2022-11-03T06:49:54;101058.04;;;11.93;82.36
42067;BME280;27734;47.028;28.820;2022-11-03T06:52:36;101067.09;;;12.00;82.57
42067;BME280;27734;47.028;28.820;2022-11-03T06:55:25;101062.19;;;12.09;82.14
42067;BME280;27734;47.028;28.820;2022-11-03T06:58:00;101055.59;;;12.20;82.24
42067;BME280;27734;47.028;28.820;2022-11-03T07:00:41;101054.25;;;12.32;81.98
42067;BME280;27734;47.028;28.820;2022-11-03T07:10:43;101041.66;;;12.47;81.55
42067;BME280;27734;47.028;28.820;2022-11-03T07:13:21;101023.23;;;12.47;81.33
42067;BME280;27734;47.028;28.820;2022-11-03T07:15:53;101001.19;;;12.44;81.64
42067;BME280;27734;47.028;28.820;2022-11-03T07:18:28;101002.23;;;12.49;81.52
42067;BME280;27734;47.028;28.820;2022-11-03T07:21:05;101016.50;;;12.55;81.65
42067;BME280;27734;47.028;28.820;2022-11-03T07:23:37;101017.77;;;12.67;81.55
42067;BME280;27734;47.028;28.820;2022-11-03T07:26:11;101022.42;;;12.74;81.27
42067;BME280;27734;47.028;28.820;2022-11-03T07:28:42;101028.80;;;12.81;81.17
42067;BME280;27734;47.028;28.820;2022-11-03T07:31:23;101036.86;;;12.85;80.89
42067;BME280;27734;47.028;28.820;2022-11-03T07:34:00;101036.96;;;12.88;79.94
42067;BME280;27734;47.028;28.820;2022-11-03T07:36:41;101031.75;;;12.90;80.29
42067;BME280;27734;47.028;28.820;2022-11-03T07:39:18;101033.72;;;12.95;80.29
42067;BME280;27734;47.028;28.820;2022-11-03T07:41:54;101028.66;;;13.02;80.37
42067;BME280;27734;47.028;28.820;2022-11-03T07:44:35;101039.41;;;13.08;80.23
42067;BME280;27734;47.028;28.820;2022-11-03T07:47:18;101025.61;;;13.15;79.26
42067;BME280;27734;47.028;28.820;2022-11-03T07:49:55;101031.10;;;13.23;80.35
42067;BME280;27734;47.028;28.820;2022-11-03T07:52:27;101037.68;;;13.34;79.38
42067;BME280;27734;47.028;28.820;2022-11-03T07:55:10;101026.47;;;13.41;79.19
42067;BME280;27734;47.028;28.820;2022-11-03T07:57:48;101031.89;;;13.46;78.95
42067;BME280;27734;47.028;28.820;2022-11-03T08:00:25;101029.56;;;13.55;79.70
42067;BME280;27734;47.028;28.820;2022-11-03T08:03:00;101032.34;;;13.60;78.54
42067;BME280;27734;47.028;28.820;2022-11-03T08:05:34;101037.02;;;13.69;78.90
42067;BME280;27734;47.028;28.820;2022-11-03T08:08:06;101030.28;;;13.78;78.21
42067;BME280;27734;47.028;28.820;2022-11-03T08:10:38;101027.94;;;13.88;78.76
42067;BME280;27734;47.028;28.820;2022-11-03T08:13:15;101021.23;;;13.99;77.02
42067;BME280;27734;47.028;28.820;2022-11-03T08:15:45;101028.35;;;14.01;76.78
42067;BME280;27734;47.028;28.820;2022-11-03T08:18:25;101032.89;;;14.06;77.03
42067;BME280;27734;47.028;28.820;2022-11-03T08:20:57;101031.13;;;14.06;77.29
42067;BME280;27734;47.028;28.820;2022-11-03T08:23:28;101029.28;;;14.03;75.96
42067;BME280;27734;47.028;28.820;2022-11-03T08:26:00;101027.61;;;14.06;75.75
42067;BME280;27734;47.028;28.820;2022-11-03T08:28:32;101026.92;;;14.13;75.75
42067;BME280;27734;47.028;28.820;2022-11-03T08:31:05;101023.58;;;14.18;76.44
42067;BME280;27734;47.028;28.820;2022-11-03T08:33:37;101026.40;;;14.25;76.28
42067;BME280;27734;47.028;28.820;2022-11-03T08:36:09;101025.66;;;14.30;76.01
42067;BME280;27734;47.028;28.820;2022-11-03T08:38:54;101034.63;;;14.35;75.06
42067;BME280;27734;47.028;28.820;2022-11-03T08:41:30;101021.52;;;14.38;74.71
42067;BME280;27734;47.028;28.820;2022-11-03T08:44:07;101034.89;;;14.45;74.88
42067;BME280;27734;47.028;28.820;2022-11-03T08:46:40;101018.35;;;14.52;74.48
42067;BME280;27734;47.028;28.820;2022-11-03T08:49:17;101025.61;;;14.59;74.52
42067;BME280;27734;47.028;28.820;2022-11-03T08:51:49;101015.20;;;14.64;74.20
42067;BME280;27734;47.028;28.820;2022-11-03T08:54:22;101023.46;;;14.76;73.71
42067;BME280;27734;47.028;28.820;2022-11-03T08:56:54;101019.39;;;14.89;73.87
42067;BME280;27734;47.028;28.820;2022-11-03T08:59:28;101004.50;;;14.92;73.30
42067;BME280;27734;47.028;28.820;2022-11-03T09:02:00;101003.62;;;14.92;72.69
42067;BME280;27734;47.028;28.820;2022-11-03T09:04:33;101010.66;;;14.91;73.31
42067;BME280;27734;47.028;28.820;2022-11-03T09:07:05;101011.30;;;14.83;72.86
42067;BME280;27734;47.028;28.820;2022-11-03T09:09:39;101011.42;;;14.87;74.19
42067;BME280;27734;47.028;28.820;2022-11-03T09:12:13;101008.38;;;15.05;73.75
42067;BME280;27734;47.028;28.820;2022-11-03T09:14:49;101004.28;;;15.18;72.59
42067;BME280;27734;47.028;28.820;2022-11-03T09:17:27;101000.60;;;15.12;72.17
42067;BME280;27734;47.028;28.820;2022-11-03T09:20:01;100998.08;;;15.16;72.87
42067;BME280;27734;47.028;28.820;2022-11-03T09:22:33;100998.11;;;15.18;73.20
42067;BME280;27734;47.028;28.820;2022-11-03T09:25:10;100989.53;;;15.28;70.62
42067;BME280;27734;47.028;28.820;2022-11-03T09:27:42;100990.45;;;15.30;71.51
42067;BME280;27734;47.028;28.820;2022-11-03T09:30:16;100989.50;;;15.26;71.63
42067;BME280;27734;47.028;28.820;2022-11-03T09:32:48;100992.94;;;15.22;70.18
42067;BME280;27734;47.028;28.820;2022-11-03T09:35:22;100998.19;;;15.21;71.19
42067;BME280;27734;47.028;28.820;2022-11-03T09:37:57;101003.25;;;15.12;69.33
42067;BME280;27734;47.028;28.820;2022-11-03T09:40:37;101001.60;;;15.17;70.01
42067;BME280;27734;47.028;28.820;2022-11-03T09:43:13;100989.42;;;15.23;69.59
42067;BME280;27734;47.028;28.820;2022-11-03T09:45:50;100990.45;;;15.30;69.38
42067;BME280;27734;47.028;28.820;2022-11-03T09:48:31;100985.42;;;15.41;69.12
42067;BME280;27734;47.028;28.820;2022-11-03T09:51:04;100986.66;;;15.55;68.61
42067;BME280;27734;47.028;28.820;2022-11-03T09:53:35;100980.84;;;15.72;69.01
42067;BME280;27734;47.028;28.820;2022-11-03T09:56:09;100990.72;;;15.77;67.17
42067;BME280;27734;47.028;28.820;2022-11-03T09:58:42;100985.45;;;15.79;66.76
42067;BME280;27734;47.028;28.820;2022-11-03T10:01:13;100978.41;;;15.79;66.04
42067;BME280;27734;47.028;28.820;2022-11-03T10:03:46;100974.16;;;15.88;66.62
42067;BME280;27734;47.028;28.820;2022-11-03T10:06:18;100968.09;;;15.92;65.68
42067;BME280;27734;47.028;28.820;2022-11-03T10:08:50;100973.52;;;15.98;65.85
42067;BME280;27734;47.028;28.820;2022-11-03T10:11:21;100963.94;;;16.05;66.14
42067;BME280;27734;47.028;28.820;2022-11-03T10:13:57;100970.33;;;16.14;65.22
42067;BME280;27734;47.028;28.820;2022-11-03T10:16:32;100967.75;;;16.17;64.06
42067;BME280;27734;47.028;28.820;2022-11-03T10:19:07;100956.34;;;16.22;63.54
42067;BME280;27734;47.028;28.820;2022-11-03T10:21:37;100961.70;;;16.25;61.77
42067;BME280;27734;47.028;28.820;2022-11-03T10:24:14;100957.31;;;16.25;61.32
42067;BME280;27734;47.028;28.820;2022-11-03T10:26:55;100947.52;;;16.21;60.87
42067;BME280;27734;47.028;28.820;2022-11-03T10:29:27;100958.95;;;16.20;59.17
42067;BME280;27734;47.028;28.820;2022-11-03T10:32:29;100953.41;;;16.08;61.18
42067;BME280;27734;47.028;28.820;2022-11-03T10:35:32;100961.12;;;15.97;59.31
42067;BME280;27734;47.028;28.820;2022-11-03T10:38:26;100951.58;;;16.04;61.05
42067;BME280;27734;47.028;28.820;2022-11-03T10:41:11;100951.61;;;16.05;59.56
42067;BME280;27734;47.028;28.820;2022-11-03T10:43:59;100958.58;;;16.02;59.50
42067;BME280;27734;47.028;28.820;2022-11-03T10:46:38;100935.55;;;15.96;59.64
42067;BME280;27734;47.028;28.820;2022-11-03T10:49:15;100946.78;;;15.86;57.92
42067;BME280;27734;47.028;28.820;2022-11-03T10:51:48;100945.80;;;15.80;58.17
42067;BME280;27734;47.028;28.820;2022-11-03T10:54:22;100936.06;;;15.79;58.14
42067;BME280;27734;47.028;28.820;2022-11-03T10:56:57;100942.41;;;15.88;59.10
42067;BME280;27734;47.028;28.820;2022-11-03T10:59:32;100942.56;;;15.95;59.04
42067;BME280;27734;47.028;28.820;2022-11-03T11:02:14;100928.55;;;15.99;58.90
42067;BME280;27734;47.028;28.820;2022-11-03T11:04:49;100926.91;;;16.06;57.68
42067;BME280;27734;47.028;28.820;2022-11-03T11:07:28;100917.36;;;16.13;59.35
42067;BME280;27734;47.028;28.820;2022-11-03T11:10:10;100931.47;;;16.13;56.89
42067;BME280;27734;47.028;28.820;2022-11-03T11:13:04;100925.08;;;16.02;58.50
42067;BME280;27734;47.028;28.820;2022-11-03T11:15:39;100919.63;;;15.94;57.73
42067;BME280;27734;47.028;28.820;2022-11-03T11:18:33;100927.54;;;15.93;57.64
42067;BME280;27734;47.028;28.820;2022-11-03T11:24:13;100922.41;;;16.01;56.90
42067;BME280;27734;47.028;28.820;2022-11-03T11:26:44;100916.86;;;15.88;56.25
42067;BME280;27734;47.028;28.820;2022-11-03T11:29:41;100916.83;;;15.87;57.93
42067;BME280;27734;47.028;28.820;2022-11-03T11:39:11;100907.45;;;15.61;57.15
42067;BME280;27734;47.028;28.820;2022-11-03T11:42:07;100898.50;;;15.56;56.21
42067;BME280;27734;47.028;28.820;2022-11-03T11:44:46;100894.97;;;15.56;57.03
42067;BME280;27734;47.028;28.820;2022-11-03T11:47:25;100892.33;;;15.56;55.90
42067;BME280;27734;47.028;28.820;2022-11-03T11:50:26;100897.78;;;15.63;55.84
42067;BME280;27734;47.028;28.820;2022-11-03T11:53:13;100899.64;;;15.68;54.95
42067;BME280;27734;47.028;28.820;2022-11-03T11:55:55;100881.29;;;15.75;55.24
42067;BME280;27734;47.028;28.820;2022-11-03T11:58:39;100914.18;;;15.87;53.49
42067;BME280;27734;47.028;28.820;2022-11-03T12:01:25;100884.25;;;15.91;54.78
42067;BME280;27734;47.028;28.820;2022-11-03T12:04:12;100886.86;;;15.89;54.18
42067;BME280;27734;47.028;28.820;2022-11-03T12:06:47;100880.63;;;15.86;54.70
42067;BME280;27734;47.028;28.820;2022-11-03T12:09:21;100888.53;;;15.84;53.65
42067;BME280;27734;47.028;28.820;2022-11-03T12:11:57;100887.46;;;15.76;53.44
42067;BME280;27734;47.028;28.820;2022-11-03T12:14:36;100876.81;;;15.73;52.92
42067;BME280;27734;47.028;28.820;2022-11-03T12:17:34;100869.80;;;15.75;52.66
42067;BME280;27734;47.028;28.820;2022-11-03T12:20:35;100877.83;;;15.78;52.26
42067;BME280;27734;47.028;28.820;2022-11-03T12:23:32;100872.47;;;15.76;52.60
42067;BME280;27734;47.028;28.820;2022-11-03T12:26:11;100879.52;;;15.76;53.48
42067;BME280;27734;47.028;28.820;2022-11-03T12:28:44;100883.05;;;15.76;53.75
42067;BME280;27734;47.028;28.820;2022-11-03T12:31:21;100888.28;;;15.73;53.21
42067;BME280;27734;47.028;28.820;2022-11-03T12:36:42;100880.97;;;15.60;53.53
42067;BME280;27734;47.028;28.820;2022-11-03T12:39:15;100882.53;;;15.52;52.48
42067;BME280;27734;47.028;28.820;2022-11-03T12:41:48;100877.95;;;15.43;53.59
42067;BME280;27734;47.028;28.820;2022-11-03T12:44:24;100873.27;;;15.31;52.91
42067;BME280;27734;47.028;28.820;2022-11-03T12:47:00;100872.53;;;15.37;53.61
42067;BME280;27734;47.028;28.820;2022-11-03T12:49:39;100872.46;;;15.34;52.56
42067;BME280;27734;47.028;28.820;2022-11-03T12:52:12;100876.94;;;15.38;52.51
42067;BME280;27734;47.028;28.820;2022-11-03T12:54:46;100873.41;;;15.37;52.28
42067;BME280;27734;47.028;28.820;2022-11-03T12:57:22;100876.02;;;15.36;52.50
42067;BME280;27734;47.028;28.820;2022-11-03T12:59:58;100871.61;;;15.36;52.26
42067;BME280;27734;47.028;28.820;2022-11-03T13:02:34;100876.91;;;15.36;51.23
42067;BME280;27734;47.028;28.820;2022-11-03T13:05:06;100869.78;;;15.32;51.52
42067;BME280;27734;47.028;28.820;2022-11-03T13:07:41;100870.80;;;15.39;51.85
42067;BME280;27734;47.028;28.820;2022-11-03T13:10:21;100870.80;;;15.39;50.62
42067;BME280;27734;47.028;28.820;2022-11-03T13:13:14;100869.08;;;15.41;51.15
42067;BME280;27734;47.028;28.820;2022-11-03T13:15:53;100874.43;;;15.44;51.51
42067;BME280;27734;47.028;28.820;2022-11-03T13:21:09;100870.13;;;15.48;50.42
42067;BME280;27734;47.028;28.820;2022-11-03T13:23:43;100872.80;;;15.49;50.66
42067;BME280;27734;47.028;28.820;2022-11-03T13:26:29;100875.45;;;15.49;49.48
42067;BME280;27734;47.028;28.820;2022-11-03T13:29:15;100869.20;;;15.47;49.97
42067;BME280;27734;47.028;28.820;2022-11-03T13:32:06;100876.19;;;15.43;48.55
42067;BME280;27734;47.028;28.820;2022-11-03T13:35:03;100871.61;;;15.36;48.89
42067;BME280;27734;47.028;28.820;2022-11-03T13:37:57;100869.72;;;15.29;49.38
42067;BME280;27734;47.028;28.820;2022-11-03T13:40:40;100871.37;;;15.24;49.06
42067;BME280;27734;47.028;28.820;2022-11-03T13:43:19;100883.57;;;15.19;49.59
42067;BME280;27734;47.028;28.820;2022-11-03T13:49:08;100870.07;;;15.06;49.28
42067;BME280;27734;47.028;28.820;2022-11-03T13:52:02;100874.36;;;15.01;49.99
42067;BME280;27734;47.028;28.820;2022-11-03T13:54:36;100884.86;;;14.98;50.12
42067;BME280;27734;47.028;28.820;2022-11-03T13:57:09;100871.54;;;14.94;50.31